Terminal Aerodrome Forecast
Issued by NWS

Home | Current Version | Previous Version | Text Only | Print | Product List | Glossary On
Versions: 1 2 3 4 5 6 7 8 9 10
305
FTUS42 TJSJ 232322
TAFJBQ
TAF
TJBQ 232322Z 2400/2424 VRB03KT P6SM VCSH SCT050
     FM240200 12003KT P6SM FEW030 SCT100
     FM241500 09014KT P6SM SCT025 SCT050
     FM242230 11005KT P6SM -RA SCT030 BKN060 BKN100
      AMD NOT SKED=

USA.gov is the U.S. government's official web portal to all federal, state and local government web resources and services.